createdAt,value
2018-08-12T00:00:54.710Z,14.44
2018-08-12T00:03:23.233Z,14.35
2018-08-12T00:05:51.430Z,14.31
2018-08-12T00:08:19.626Z,14.25
2018-08-12T00:10:47.813Z,14.18
2018-08-12T00:13:16.030Z,14.00
2018-08-12T00:15:44.245Z,13.98
2018-08-12T00:18:12.429Z,13.92
2018-08-12T00:20:40.627Z,13.97
2018-08-12T00:23:08.815Z,13.76
2018-08-12T00:25:37.022Z,13.75
2018-08-12T00:28:05.708Z,13.74
2018-08-12T00:30:34.222Z,13.78
2018-08-12T00:33:02.395Z,13.77
2018-08-12T00:35:30.676Z,13.52
2018-08-12T00:37:58.942Z,13.54
2018-08-12T00:40:27.178Z,13.49
2018-08-12T00:42:55.354Z,13.53
2018-08-12T00:45:24.102Z,13.57
2018-08-12T00:47:52.266Z,13.51
2018-08-12T00:50:20.653Z,13.64
2018-08-12T00:52:48.839Z,13.61
2018-08-12T00:55:18.269Z,13.60
2018-08-12T00:57:48.144Z,13.52
2018-08-12T01:00:18.469Z,13.60
2018-08-12T01:02:46.653Z,13.56
2018-08-12T01:05:16.153Z,13.42
2018-08-12T01:07:44.941Z,13.41
2018-08-12T01:10:13.605Z,13.37
2018-08-12T01:12:41.817Z,13.48
2018-08-12T01:15:15.561Z,13.42
2018-08-12T01:17:44.217Z,13.36
2018-08-12T01:20:17.986Z,13.30
2018-08-12T01:22:46.492Z,13.22
2018-08-12T01:25:14.767Z,13.25
2018-08-12T01:27:43.332Z,13.41
2018-08-12T01:30:14.065Z,13.46
2018-08-12T01:32:42.660Z,13.37
2018-08-12T01:35:11.952Z,13.30
2018-08-12T01:37:40.640Z,13.26
2018-08-12T01:40:11.154Z,13.28
2018-08-12T01:42:39.742Z,13.22
2018-08-12T01:45:08.776Z,13.17
2018-08-12T01:47:37.064Z,13.17
2018-08-12T01:50:05.854Z,13.21
2018-08-12T01:52:34.046Z,13.17
2018-08-12T01:55:02.230Z,12.95
2018-08-12T01:57:30.467Z,12.85
2018-08-12T01:59:58.698Z,12.84
2018-08-12T02:02:27.148Z,12.94
2018-08-12T02:04:55.354Z,13.07
2018-08-12T02:07:23.537Z,13.07
2018-08-12T02:09:52.002Z,13.06
2018-08-12T02:12:20.345Z,12.99
2018-08-12T02:14:48.836Z,12.97
2018-08-12T02:17:17.057Z,13.04
2018-08-12T02:19:45.511Z,13.02
2018-08-12T02:22:13.701Z,13.07
2018-08-12T02:24:41.882Z,13.12
2018-08-12T02:27:10.101Z,13.11
2018-08-12T02:29:38.308Z,13.00
2018-08-12T02:32:06.475Z,12.97
2018-08-12T02:34:35.041Z,13.01
2018-08-12T02:37:03.501Z,12.96
2018-08-12T02:39:31.693Z,12.98
2018-08-12T02:41:59.892Z,12.94
2018-08-12T02:44:28.357Z,13.09
2018-08-12T02:46:57.267Z,13.18
2018-08-12T02:49:25.462Z,13.09
2018-08-12T02:51:53.649Z,13.02
2018-08-12T02:54:22.161Z,13.17
2018-08-12T02:56:50.357Z,13.08
2018-08-12T02:59:18.590Z,12.96
2018-08-12T03:01:46.767Z,12.94
2018-08-12T03:04:14.980Z,12.97
2018-08-12T03:06:43.346Z,12.93
2018-08-12T03:09:12.688Z,12.90
2018-08-12T03:11:40.928Z,12.85
2018-08-12T03:14:09.866Z,12.88
2018-08-12T03:16:38.430Z,12.85
2018-08-12T03:19:06.642Z,12.80
2018-08-12T03:21:34.864Z,12.74
2018-08-12T03:24:03.054Z,12.72
2018-08-12T03:26:31.569Z,12.70
2018-08-12T03:28:59.789Z,12.69
2018-08-12T03:31:27.981Z,12.64
2018-08-12T03:33:56.201Z,12.62
2018-08-12T03:36:24.413Z,12.64
2018-08-12T03:38:52.997Z,12.59
2018-08-12T03:41:21.219Z,12.56
2018-08-12T03:43:49.573Z,12.59
2018-08-12T03:46:17.801Z,12.57
2018-08-12T03:48:46.072Z,12.56
2018-08-12T03:51:14.249Z,12.59
2018-08-12T03:53:42.465Z,12.59
2018-08-12T03:56:10.651Z,12.58
2018-08-12T03:58:38.841Z,12.52
2018-08-12T04:01:07.515Z,12.62
2018-08-12T04:03:35.719Z,12.64
2018-08-12T04:06:03.971Z,12.65
2018-08-12T04:08:32.196Z,12.55
2018-08-12T04:11:00.411Z,12.52
2018-08-12T04:13:28.610Z,12.45
2018-08-12T04:15:56.804Z,12.70
2018-08-12T04:18:25.125Z,12.58
2018-08-12T04:20:53.370Z,12.30
2018-08-12T04:23:21.562Z,12.26
2018-08-12T04:25:50.060Z,12.44
2018-08-12T04:28:18.538Z,12.48
2018-08-12T04:30:46.726Z,12.39
2018-08-12T04:33:14.945Z,12.51
2018-08-12T04:35:46.130Z,12.52
2018-08-12T04:38:14.589Z,12.67
2018-08-12T04:40:42.776Z,12.68
2018-08-12T04:43:10.975Z,12.82
2018-08-12T04:45:39.189Z,12.84
2018-08-12T04:48:07.405Z,13.01
2018-08-12T04:50:38.531Z,13.16
2018-08-12T04:53:06.729Z,13.28
2018-08-12T04:55:34.926Z,13.32
2018-08-12T04:58:03.391Z,13.39
2018-08-12T05:00:31.600Z,13.57
2018-08-12T05:02:59.846Z,13.70
2018-08-12T05:05:28.027Z,13.76
2018-08-12T05:07:56.229Z,13.80
2018-08-12T05:10:24.405Z,13.98
2018-08-12T05:12:52.902Z,13.96
2018-08-12T05:15:21.158Z,14.17
2018-08-12T05:17:49.370Z,14.30
2018-08-12T05:20:17.547Z,14.37
2018-08-12T05:22:45.768Z,14.50
2018-08-12T05:25:13.966Z,14.71
2018-08-12T05:27:42.586Z,14.72
2018-08-12T05:30:11.324Z,14.90
2018-08-12T05:32:40.419Z,14.98
2018-08-12T05:35:10.532Z,15.09
2018-08-12T05:37:38.953Z,15.11
2018-08-12T05:40:08.922Z,15.28
2018-08-12T05:42:37.181Z,15.40
2018-08-12T05:45:06.624Z,15.48
2018-08-12T05:47:34.842Z,15.55
2018-08-12T05:50:03.065Z,15.55
2018-08-12T05:52:31.225Z,15.68
2018-08-12T05:54:59.397Z,15.59
2018-08-12T05:57:27.638Z,15.91
2018-08-12T06:00:02.785Z,15.82
2018-08-12T06:02:31.039Z,16.16
2018-08-12T06:04:59.218Z,16.04
2018-08-12T06:07:27.434Z,16.06
2018-08-12T06:09:56.446Z,15.86
2018-08-12T06:12:24.631Z,16.25
2018-08-12T06:14:52.865Z,16.24
2018-08-12T06:17:21.128Z,16.65
2018-08-12T06:19:49.254Z,16.60
2018-08-12T06:22:17.414Z,16.97
2018-08-12T06:24:45.635Z,17.14
2018-08-12T06:27:13.890Z,17.23
2018-08-12T06:29:42.066Z,17.39
2018-08-12T06:32:10.292Z,17.52
2018-08-12T06:34:38.506Z,17.36
2018-08-12T06:37:06.754Z,17.71
2018-08-12T06:39:35.222Z,17.53
2018-08-12T06:42:03.430Z,17.75
2018-08-12T06:44:31.609Z,17.96
2018-08-12T06:47:00.588Z,17.90
2018-08-12T06:49:28.766Z,18.33
2018-08-12T06:51:57.263Z,18.23
2018-08-12T06:54:25.484Z,18.24
2018-08-12T06:56:53.677Z,18.50
2018-08-12T06:59:21.853Z,18.27
2018-08-12T07:01:50.057Z,18.76
2018-08-12T07:04:18.229Z,18.98
2018-08-12T07:06:46.449Z,19.11
2018-08-12T07:09:14.659Z,19.16
2018-08-12T07:11:42.913Z,19.20
2018-08-12T07:14:11.692Z,19.38
2018-08-12T07:16:40.208Z,19.85
2018-08-12T07:19:08.873Z,19.83
2018-08-12T07:21:37.090Z,19.95
2018-08-12T07:24:05.302Z,20.06
2018-08-12T07:26:33.546Z,20.03
2018-08-12T07:29:01.748Z,20.02
2018-08-12T07:31:29.938Z,20.02
2018-08-12T07:33:58.193Z,20.03
2018-08-12T07:36:26.693Z,20.80
2018-08-12T07:38:55.208Z,20.90
2018-08-12T07:41:23.394Z,20.78
2018-08-12T07:43:51.590Z,20.70
2018-08-12T07:46:20.026Z,21.06
2018-08-12T07:48:48.832Z,21.35
2018-08-12T07:51:16.941Z,21.59
2018-08-12T07:53:45.157Z,21.68
2018-08-12T07:56:13.338Z,21.75
2018-08-12T07:58:41.593Z,21.97
2018-08-12T08:01:09.821Z,22.17
2018-08-12T08:03:38.039Z,22.58
2018-08-12T08:06:06.255Z,21.78
2018-08-12T08:08:34.513Z,22.66
2018-08-12T08:11:02.718Z,23.56
2018-08-12T08:13:31.009Z,23.10
2018-08-12T08:15:59.240Z,23.20
2018-08-12T08:18:27.469Z,23.42
2018-08-12T08:20:55.659Z,23.23
2018-08-12T08:23:24.171Z,23.64
2018-08-12T08:25:52.439Z,23.41
2018-08-12T08:28:20.568Z,24.32
2018-08-12T08:30:48.796Z,24.33
2018-08-12T08:33:16.992Z,24.08
2018-08-12T08:35:45.252Z,23.76
2018-08-12T08:38:13.473Z,24.60
2018-08-12T08:40:41.695Z,24.16
2018-08-12T08:43:09.866Z,24.01
2018-08-12T08:45:38.066Z,24.69
2018-08-12T08:48:06.638Z,24.87
2018-08-12T08:50:34.920Z,24.26
2018-08-12T08:53:03.126Z,24.17
2018-08-12T08:55:31.387Z,25.13
2018-08-12T08:57:59.588Z,24.98
2018-08-12T09:00:28.185Z,24.27
2018-08-12T09:02:56.457Z,24.96
2018-08-12T09:05:24.901Z,25.26
2018-08-12T09:07:53.514Z,24.64
2018-08-12T09:10:21.933Z,25.36
2018-08-12T09:12:50.149Z,25.68
2018-08-12T09:15:19.622Z,24.85
2018-08-12T09:17:48.741Z,24.64
2018-08-12T09:20:18.193Z,25.75
2018-08-12T09:22:46.433Z,24.94
2018-08-12T09:25:14.724Z,25.80
2018-08-12T09:27:43.073Z,25.61
2018-08-12T09:30:13.765Z,26.47
2018-08-12T09:32:42.067Z,26.54
2018-08-12T09:35:10.282Z,26.66
2018-08-12T09:37:38.557Z,26.88
2018-08-12T09:40:08.730Z,26.64
2018-08-12T09:42:37.252Z,25.89
2018-08-12T09:45:07.174Z,26.20
2018-08-12T09:47:35.385Z,26.24
2018-08-12T09:50:03.605Z,26.59
2018-08-12T09:52:31.906Z,26.47
2018-08-12T09:55:00.114Z,26.10
2018-08-12T09:57:28.299Z,26.84
2018-08-12T09:59:56.634Z,27.00
2018-08-12T10:02:24.845Z,26.69
2018-08-12T10:04:53.018Z,26.82
2018-08-12T10:07:21.232Z,26.65
2018-08-12T10:09:49.705Z,26.51
2018-08-12T10:12:17.873Z,27.20
2018-08-12T10:14:46.090Z,27.20
2018-08-12T10:17:14.348Z,27.70
2018-08-12T10:19:42.521Z,27.81
2018-08-12T10:22:10.863Z,27.88
2018-08-12T10:24:39.090Z,27.11
2018-08-12T10:27:07.371Z,26.81
2018-08-12T10:29:35.669Z,26.96
2018-08-12T10:32:03.945Z,27.74
2018-08-12T10:34:32.396Z,27.84
2018-08-12T10:37:00.647Z,27.30
2018-08-12T10:39:28.858Z,27.72
2018-08-12T10:41:57.107Z,28.40
2018-08-12T10:44:25.636Z,28.25
2018-08-12T10:46:54.617Z,28.32
2018-08-12T10:49:22.842Z,27.79
2018-08-12T10:51:51.190Z,27.80
2018-08-12T10:54:20.574Z,28.60
2018-08-12T10:56:49.150Z,29.13
2018-08-12T10:59:17.513Z,29.29
2018-08-12T11:01:45.734Z,29.02
2018-08-12T11:04:13.946Z,29.41
2018-08-12T11:06:42.160Z,29.73
2018-08-12T11:09:10.481Z,30.02
2018-08-12T11:11:38.802Z,30.56
2018-08-12T11:14:07.078Z,35.90
2018-08-12T11:16:35.265Z,40.58
2018-08-12T11:19:03.534Z,42.47
2018-08-12T11:21:31.863Z,43.02
2018-08-12T11:24:00.104Z,43.01
2018-08-12T11:26:28.311Z,44.21
2018-08-12T11:28:56.553Z,42.78
2018-08-12T11:31:24.833Z,41.64
2018-08-12T11:33:53.406Z,41.49
2018-08-12T11:36:21.677Z,44.13
2018-08-12T11:38:49.885Z,42.02
2018-08-12T11:41:18.419Z,40.15
2018-08-12T11:43:46.885Z,44.79
2018-08-12T11:46:15.083Z,46.65
2018-08-12T11:48:43.288Z,47.34
2018-08-12T11:51:11.607Z,47.39
2018-08-12T11:53:39.786Z,44.80
2018-08-12T11:56:08.031Z,45.46
2018-08-12T11:58:36.736Z,46.02
2018-08-12T12:01:04.912Z,45.71
2018-08-12T12:03:33.199Z,45.08
2018-08-12T12:06:01.365Z,48.55
2018-08-12T12:08:29.528Z,49.24
2018-08-12T12:10:57.692Z,50.64
2018-08-12T12:13:25.962Z,50.72
2018-08-12T12:15:54.156Z,51.15
2018-08-12T12:18:22.645Z,51.25
2018-08-12T12:20:50.914Z,51.59
2018-08-12T12:23:19.105Z,49.78
2018-08-12T12:25:47.261Z,52.64
2018-08-12T12:28:15.435Z,51.91
2018-08-12T12:30:43.871Z,53.36
2018-08-12T12:33:12.065Z,52.73
2018-08-12T12:35:40.326Z,54.46
2018-08-12T12:38:08.625Z,51.04
2018-08-12T12:40:36.784Z,52.07
2018-08-12T12:43:04.973Z,50.51
2018-08-12T12:45:33.269Z,53.19
2018-08-12T12:48:01.459Z,52.45
2018-08-12T12:50:29.664Z,49.22
2018-08-12T12:52:57.989Z,49.59
2018-08-12T12:55:26.188Z,49.39
2018-08-12T12:57:54.870Z,45.02
2018-08-12T13:00:23.279Z,47.02
2018-08-12T13:02:51.667Z,47.21
2018-08-12T13:05:21.022Z,46.37
2018-08-12T13:07:49.924Z,45.54
2018-08-12T13:10:18.704Z,47.00
2018-08-12T13:12:47.225Z,50.35
2018-08-12T13:15:16.134Z,50.50
2018-08-12T13:17:47.296Z,48.83
2018-08-12T13:20:17.584Z,46.62
2018-08-12T13:22:47.154Z,45.11
2018-08-12T13:25:17.095Z,46.68
2018-08-12T13:27:45.571Z,49.87
2018-08-12T13:30:14.600Z,49.91
2018-08-12T13:32:44.067Z,45.89
2018-08-12T13:35:12.378Z,45.99
2018-08-12T13:37:40.668Z,47.46
2018-08-12T13:40:11.092Z,48.15
2018-08-12T13:42:40.277Z,50.68
2018-08-12T13:45:09.936Z,47.34
2018-08-12T13:47:38.422Z,47.13
2018-08-12T13:50:09.297Z,49.60
2018-08-12T13:52:37.594Z,51.66
2018-08-12T13:55:06.568Z,47.10
2018-08-12T13:57:35.111Z,51.32
2018-08-12T14:00:03.345Z,53.37
2018-08-12T14:02:31.829Z,53.55
2018-08-12T14:05:00.213Z,51.26
2018-08-12T14:07:28.685Z,52.52
2018-08-12T14:09:56.890Z,53.72
2018-08-12T14:12:25.191Z,54.44
2018-08-12T14:14:53.349Z,51.87
2018-08-12T14:17:21.538Z,52.44
2018-08-12T14:19:49.755Z,48.53
2018-08-12T14:22:17.933Z,49.56
2018-08-12T14:24:46.128Z,51.77
2018-08-12T14:27:14.426Z,46.28
2018-08-12T14:29:42.698Z,50.72
2018-08-12T14:32:10.864Z,50.77
2018-08-12T14:34:39.078Z,50.46
2018-08-12T14:37:07.506Z,49.82
2018-08-12T14:39:35.815Z,52.16
2018-08-12T14:42:04.125Z,50.77
2018-08-12T14:44:32.372Z,52.41
2018-08-12T14:47:01.178Z,47.32
2018-08-12T14:49:29.378Z,43.28
2018-08-12T14:51:57.665Z,49.58
2018-08-12T14:54:27.065Z,49.94
2018-08-12T14:56:55.479Z,47.29
2018-08-12T14:59:23.805Z,46.26
2018-08-12T15:01:52.017Z,43.98
2018-08-12T15:04:20.477Z,41.28
2018-08-12T15:06:48.727Z,39.68
2018-08-12T15:09:17.202Z,37.11
2018-08-12T15:11:45.366Z,35.86
2018-08-12T15:14:13.677Z,35.16
2018-08-12T15:16:41.947Z,33.37
2018-08-12T15:19:10.166Z,33.77
2018-08-12T15:21:38.367Z,32.75
2018-08-12T15:24:06.548Z,33.06
2018-08-12T15:26:34.813Z,33.44
2018-08-12T15:29:03.122Z,33.26
2018-08-12T15:31:31.324Z,32.61
2018-08-12T15:33:59.692Z,32.72
2018-08-12T15:36:27.903Z,32.89
2018-08-12T15:38:56.649Z,32.02
2018-08-12T15:41:24.934Z,32.13
2018-08-12T15:43:53.139Z,32.02
2018-08-12T15:46:21.323Z,31.95
2018-08-12T15:48:49.531Z,31.80
2018-08-12T15:51:17.726Z,31.66
2018-08-12T15:53:46.011Z,31.65
2018-08-12T15:56:14.194Z,32.17
2018-08-12T15:58:42.413Z,31.95
2018-08-12T16:01:10.663Z,31.46
2018-08-12T16:03:39.367Z,31.41
2018-08-12T16:06:07.592Z,30.86
2018-08-12T16:08:35.798Z,30.82
2018-08-12T16:11:04.463Z,30.99
2018-08-12T16:13:32.650Z,31.06
2018-08-12T16:16:01.393Z,31.23
2018-08-12T16:18:29.606Z,31.49
2018-08-12T16:20:57.942Z,31.49
2018-08-12T16:23:26.145Z,31.16
2018-08-12T16:25:54.894Z,30.96
2018-08-12T16:28:23.270Z,30.74
2018-08-12T16:30:51.566Z,30.75
2018-08-12T16:33:20.152Z,30.72
2018-08-12T16:35:48.380Z,31.01
2018-08-12T16:38:16.592Z,30.57
2018-08-12T16:40:45.285Z,30.72
2018-08-12T16:43:13.501Z,30.56
2018-08-12T16:45:41.757Z,30.68
2018-08-12T16:48:10.076Z,30.55
2018-08-12T16:50:38.330Z,30.59
2018-08-12T16:53:06.541Z,30.54
2018-08-12T16:55:34.781Z,30.30
2018-08-12T16:58:03.081Z,29.87
2018-08-12T17:00:31.258Z,29.67
2018-08-12T17:02:59.477Z,29.62
2018-08-12T17:05:27.765Z,29.56
2018-08-12T17:07:56.201Z,29.46
2018-08-12T17:10:24.399Z,29.49
2018-08-12T17:12:52.700Z,29.49
2018-08-12T17:15:22.293Z,29.57
2018-08-12T17:17:50.677Z,29.38
2018-08-12T17:20:20.285Z,29.25
2018-08-12T17:22:48.958Z,29.17
2018-08-12T17:25:22.533Z,29.10
2018-08-12T17:27:50.986Z,29.22
2018-08-12T17:30:19.432Z,28.98
2018-08-12T17:32:48.382Z,28.78
2018-08-12T17:35:16.574Z,28.71
2018-08-12T17:37:45.964Z,28.64
2018-08-12T17:40:15.114Z,28.58
2018-08-12T17:42:43.442Z,28.39
2018-08-12T17:45:12.912Z,28.33
2018-08-12T17:47:41.564Z,28.23
2018-08-12T17:50:11.787Z,28.07
2018-08-12T17:52:40.248Z,27.97
2018-08-12T17:55:09.943Z,27.89
2018-08-12T17:57:38.174Z,27.71
2018-08-12T18:00:08.462Z,27.57
2018-08-12T18:02:37.005Z,27.41
2018-08-12T18:05:06.882Z,27.30
2018-08-12T18:07:37.005Z,27.14
2018-08-12T18:10:06.675Z,27.06
2018-08-12T18:12:35.929Z,26.89
2018-08-12T18:15:06.421Z,26.77
2018-08-12T18:17:35.636Z,26.58
2018-08-12T18:20:05.385Z,26.45
2018-08-12T18:22:34.431Z,26.36
2018-08-12T18:25:04.057Z,26.26
2018-08-12T18:27:33.432Z,26.16
2018-08-12T18:30:03.637Z,26.01
2018-08-12T18:32:32.543Z,25.80
2018-08-12T18:35:03.031Z,25.69
2018-08-12T18:37:32.772Z,25.59
2018-08-12T18:40:04.196Z,25.48
2018-08-12T18:42:33.767Z,25.35
2018-08-12T18:45:03.682Z,25.20
2018-08-12T18:47:33.420Z,25.09
2018-08-12T18:50:02.459Z,24.99
2018-08-12T18:52:30.963Z,24.92
2018-08-12T18:54:59.921Z,24.75
2018-08-12T18:57:28.185Z,24.69
2018-08-12T18:59:56.655Z,24.57
2018-08-12T19:02:24.879Z,24.49
2018-08-12T19:04:53.151Z,24.38
2018-08-12T19:07:21.477Z,24.35
2018-08-12T19:09:49.752Z,24.23
2018-08-12T19:12:18.223Z,24.21
2018-08-12T19:14:46.641Z,23.98
2018-08-12T19:17:14.825Z,23.90
2018-08-12T19:19:43.037Z,23.86
2018-08-12T19:22:11.344Z,23.82
2018-08-12T19:24:39.595Z,23.78
2018-08-12T19:27:07.809Z,23.69
2018-08-12T19:29:35.986Z,23.51
2018-08-12T19:32:04.198Z,23.46
2018-08-12T19:34:32.607Z,23.37
2018-08-12T19:37:00.804Z,23.34
2018-08-12T19:39:30.777Z,23.20
2018-08-12T19:41:59.881Z,23.07
2018-08-12T19:44:28.093Z,22.92
2018-08-12T19:46:56.463Z,22.89
2018-08-12T19:49:24.813Z,22.81
2018-08-12T19:51:53.110Z,22.76
2018-08-12T19:54:22.332Z,22.66
2018-08-12T19:56:50.866Z,22.61
2018-08-12T19:59:19.094Z,22.61
2018-08-12T20:01:47.314Z,22.50
2018-08-12T20:04:15.512Z,22.48
2018-08-12T20:06:43.702Z,22.47
2018-08-12T20:09:12.625Z,22.34
2018-08-12T20:11:40.911Z,22.28
2018-08-12T20:14:09.513Z,22.27
2018-08-12T20:16:37.695Z,22.19
2018-08-12T20:19:05.890Z,22.11
2018-08-12T20:21:34.249Z,22.03
2018-08-12T20:24:03.069Z,22.04
2018-08-12T20:26:31.289Z,21.98
2018-08-12T20:28:59.475Z,21.89
2018-08-12T20:31:27.811Z,21.82
2018-08-12T20:33:56.406Z,21.76
2018-08-12T20:36:24.854Z,21.74
2018-08-12T20:38:53.031Z,21.74
2018-08-12T20:41:21.409Z,21.70
2018-08-12T20:43:50.699Z,21.58
2018-08-12T20:46:18.900Z,21.47
2018-08-12T20:48:47.238Z,21.41
2018-08-12T20:51:15.628Z,21.32
2018-08-12T20:53:44.182Z,21.35
2018-08-12T20:56:12.466Z,21.28
2018-08-12T20:58:40.669Z,21.15
2018-08-12T21:01:09.437Z,21.14
2018-08-12T21:03:37.634Z,21.07
2018-08-12T21:06:05.874Z,21.04
2018-08-12T21:08:34.080Z,21.02
2018-08-12T21:11:02.303Z,20.96
2018-08-12T21:13:30.681Z,20.96
2018-08-12T21:15:58.930Z,20.80
2018-08-12T21:18:27.149Z,20.87
2018-08-12T21:20:55.509Z,20.83
2018-08-12T21:23:23.731Z,20.77
2018-08-12T21:25:51.949Z,20.66
2018-08-12T21:28:20.200Z,20.61
2018-08-12T21:30:48.403Z,20.49
2018-08-12T21:33:16.647Z,20.38
2018-08-12T21:35:44.946Z,20.24
2018-08-12T21:38:13.270Z,20.15
2018-08-12T21:40:41.484Z,20.06
2018-08-12T21:43:09.840Z,19.96
2018-08-12T21:45:38.177Z,19.75
2018-08-12T21:48:06.567Z,19.80
2018-08-12T21:50:34.772Z,19.76
2018-08-12T21:53:02.974Z,19.68
2018-08-12T21:55:31.176Z,19.64
2018-08-12T21:57:59.382Z,19.59
2018-08-12T22:00:27.594Z,19.58
2018-08-12T22:02:55.802Z,19.55
2018-08-12T22:05:24.002Z,19.50
2018-08-12T22:07:52.529Z,19.48
2018-08-12T22:10:20.722Z,19.52
2018-08-12T22:12:48.964Z,19.42
2018-08-12T22:15:17.146Z,19.37
2018-08-12T22:17:45.345Z,19.34
2018-08-12T22:20:13.839Z,19.32
2018-08-12T22:22:42.121Z,19.28
2018-08-12T22:25:10.750Z,19.17
2018-08-12T22:27:39.079Z,19.18
2018-08-12T22:30:10.539Z,19.21
2018-08-12T22:32:38.860Z,19.21
2018-08-12T22:35:07.789Z,19.22
2018-08-12T22:37:35.985Z,19.03
2018-08-12T22:40:05.271Z,18.94
2018-08-12T22:42:33.553Z,18.90
2018-08-12T22:45:01.995Z,18.86
2018-08-12T22:47:30.210Z,18.86
2018-08-12T22:49:58.819Z,18.79
2018-08-12T22:52:27.055Z,18.81
2018-08-12T22:54:55.318Z,18.73
2018-08-12T22:57:23.496Z,18.72
2018-08-12T22:59:51.886Z,18.73
2018-08-12T23:02:20.345Z,18.78
2018-08-12T23:04:48.575Z,18.76
2018-08-12T23:07:16.762Z,18.72
2018-08-12T23:09:44.964Z,18.68
2018-08-12T23:12:13.190Z,18.63
2018-08-12T23:14:41.439Z,18.59
2018-08-12T23:17:09.902Z,18.58
2018-08-12T23:19:38.493Z,18.61
2018-08-12T23:22:06.701Z,18.58
2018-08-12T23:24:34.943Z,18.60
2018-08-12T23:27:03.279Z,18.56
2018-08-12T23:29:31.468Z,18.49
2018-08-12T23:31:59.674Z,18.45
2018-08-12T23:34:27.858Z,18.40
2018-08-12T23:36:56.074Z,18.46
2018-08-12T23:39:24.297Z,18.43
2018-08-12T23:41:52.489Z,18.40
2018-08-12T23:44:20.885Z,18.40
2018-08-12T23:46:49.110Z,18.39
2018-08-12T23:49:17.685Z,18.38
2018-08-12T23:51:45.881Z,18.37
2018-08-12T23:54:14.152Z,18.24
2018-08-12T23:56:42.333Z,18.23
2018-08-12T23:59:10.645Z,18.26
